sensor_id;sensor_type;location;lat;lon;timestamp;temperature;humidity
23497;DHT22;11925;48.122;11.560;2023-04-25T00:01:50;12.40;91.30
23497;DHT22;11925;48.122;11.560;2023-04-25T00:04:19;12.40;91.40
23497;DHT22;11925;48.122;11.560;2023-04-25T00:06:49;12.40;91.20
23497;DHT22;11925;48.122;11.560;2023-04-25T00:09:18;12.40;91.30
23497;DHT22;11925;48.122;11.560;2023-04-25T00:11:47;12.40;91.30
23497;DHT22;11925;48.122;11.560;2023-04-25T00:14:15;12.40;91.40
23497;DHT22;11925;48.122;11.560;2023-04-25T00:16:44;12.40;91.30
23497;DHT22;11925;48.122;11.560;2023-04-25T00:19:12;12.40;91.30
23497;DHT22;11925;48.122;11.560;2023-04-25T00:21:40;12.40;91.20
23497;DHT22;11925;48.122;11.560;2023-04-25T00:24:08;12.40;91.20
23497;DHT22;11925;48.122;11.560;2023-04-25T00:26:38;12.40;91.20
23497;DHT22;11925;48.122;11.560;2023-04-25T00:29:06;12.40;91.20
23497;DHT22;11925;48.122;11.560;2023-04-25T00:31:35;12.40;91.30
23497;DHT22;11925;48.122;11.560;2023-04-25T00:34:03;12.40;91.20
23497;DHT22;11925;48.122;11.560;2023-04-25T00:36:32;12.40;91.20
23497;DHT22;11925;48.122;11.560;2023-04-25T00:39:01;12.40;91.40
23497;DHT22;11925;48.122;11.560;2023-04-25T00:41:31;12.40;91.40
23497;DHT22;11925;48.122;11.560;2023-04-25T00:44:03;12.40;91.20
23497;DHT22;11925;48.122;11.560;2023-04-25T00:46:32;12.40;91.20
23497;DHT22;11925;48.122;11.560;2023-04-25T00:49:00;12.40;91.40
23497;DHT22;11925;48.122;11.560;2023-04-25T00:51:31;12.40;91.50
23497;DHT22;11925;48.122;11.560;2023-04-25T00:54:00;12.40;91.50
23497;DHT22;11925;48.122;11.560;2023-04-25T00:56:29;12.40;91.50
23497;DHT22;11925;48.122;11.560;2023-04-25T00:58:57;12.30;91.40
23497;DHT22;11925;48.122;11.560;2023-04-25T01:01:29;12.30;91.50
23497;DHT22;11925;48.122;11.560;2023-04-25T01:03:59;12.30;91.50
23497;DHT22;11925;48.122;11.560;2023-04-25T01:06:28;12.30;91.50
23497;DHT22;11925;48.122;11.560;2023-04-25T01:08:57;12.40;91.80
23497;DHT22;11925;48.122;11.560;2023-04-25T01:11:27;12.30;92.00
23497;DHT22;11925;48.122;11.560;2023-04-25T01:13:55;12.30;92.20
23497;DHT22;11925;48.122;11.560;2023-04-25T01:16:24;12.30;92.20
23497;DHT22;11925;48.122;11.560;2023-04-25T01:18:54;12.30;92.00
23497;DHT22;11925;48.122;11.560;2023-04-25T01:21:24;12.30;91.90
23497;DHT22;11925;48.122;11.560;2023-04-25T01:23:55;12.30;91.60
23497;DHT22;11925;48.122;11.560;2023-04-25T01:26:25;12.30;91.60
23497;DHT22;11925;48.122;11.560;2023-04-25T01:28:54;12.30;91.60
23497;DHT22;11925;48.122;11.560;2023-04-25T01:31:23;12.30;91.50
23497;DHT22;11925;48.122;11.560;2023-04-25T01:33:52;12.30;91.50
23497;DHT22;11925;48.122;11.560;2023-04-25T01:36:21;12.20;91.40
23497;DHT22;11925;48.122;11.560;2023-04-25T01:38:51;12.20;91.30
23497;DHT22;11925;48.122;11.560;2023-04-25T01:41:21;12.20;91.20
23497;DHT22;11925;48.122;11.560;2023-04-25T01:43:50;12.30;91.70
23497;DHT22;11925;48.122;11.560;2023-04-25T01:46:19;12.30;91.50
23497;DHT22;11925;48.122;11.560;2023-04-25T01:48:48;12.30;91.40
23497;DHT22;11925;48.122;11.560;2023-04-25T01:51:17;12.30;91.30
23497;DHT22;11925;48.122;11.560;2023-04-25T01:53:46;12.30;91.40
23497;DHT22;11925;48.122;11.560;2023-04-25T01:56:17;12.30;91.40
23497;DHT22;11925;48.122;11.560;2023-04-25T01:58:46;12.30;91.20
23497;DHT22;11925;48.122;11.560;2023-04-25T02:01:20;12.30;91.20
23497;DHT22;11925;48.122;11.560;2023-04-25T02:04:05;12.20;91.10
23497;DHT22;11925;48.122;11.560;2023-04-25T02:06:36;12.30;91.10
23497;DHT22;11925;48.122;11.560;2023-04-25T02:09:06;12.20;91.00
23497;DHT22;11925;48.122;11.560;2023-04-25T02:11:40;12.20;90.90
23497;DHT22;11925;48.122;11.560;2023-04-25T02:14:25;12.20;91.00
23497;DHT22;11925;48.122;11.560;2023-04-25T02:17:02;12.20;91.20
23497;DHT22;11925;48.122;11.560;2023-04-25T02:19:31;12.10;91.30
23497;DHT22;11925;48.122;11.560;2023-04-25T02:22:00;12.10;91.50
23497;DHT22;11925;48.122;11.560;2023-04-25T02:24:29;12.10;91.70
23497;DHT22;11925;48.122;11.560;2023-04-25T02:27:00;12.10;91.80
23497;DHT22;11925;48.122;11.560;2023-04-25T02:29:28;12.00;91.90
23497;DHT22;11925;48.122;11.560;2023-04-25T02:31:57;12.00;91.90
23497;DHT22;11925;48.122;11.560;2023-04-25T02:34:25;12.00;92.00
23497;DHT22;11925;48.122;11.560;2023-04-25T02:36:54;12.00;92.10
23497;DHT22;11925;48.122;11.560;2023-04-25T02:39:22;12.00;92.10
23497;DHT22;11925;48.122;11.560;2023-04-25T02:41:52;12.00;91.90
23497;DHT22;11925;48.122;11.560;2023-04-25T02:44:22;12.10;91.60
23497;DHT22;11925;48.122;11.560;2023-04-25T02:46:51;12.00;91.40
23497;DHT22;11925;48.122;11.560;2023-04-25T02:49:19;12.10;91.50
23497;DHT22;11925;48.122;11.560;2023-04-25T02:51:48;12.10;91.30
23497;DHT22;11925;48.122;11.560;2023-04-25T02:54:16;12.10;91.00
23497;DHT22;11925;48.122;11.560;2023-04-25T02:56:47;12.10;91.00
23497;DHT22;11925;48.122;11.560;2023-04-25T02:59:23;12.10;91.00
23497;DHT22;11925;48.122;11.560;2023-04-25T03:01:51;12.10;90.90
23497;DHT22;11925;48.122;11.560;2023-04-25T03:04:20;12.10;90.80
23497;DHT22;11925;48.122;11.560;2023-04-25T03:06:50;12.10;90.90
23497;DHT22;11925;48.122;11.560;2023-04-25T03:09:21;12.10;90.90
23497;DHT22;11925;48.122;11.560;2023-04-25T03:11:51;12.10;90.80
23497;DHT22;11925;48.122;11.560;2023-04-25T03:14:20;12.10;90.80
23497;DHT22;11925;48.122;11.560;2023-04-25T03:16:50;12.10;90.80
23497;DHT22;11925;48.122;11.560;2023-04-25T03:19:19;12.10;90.80
23497;DHT22;11925;48.122;11.560;2023-04-25T03:21:48;12.00;91.30
23497;DHT22;11925;48.122;11.560;2023-04-25T03:24:17;12.00;91.40
23497;DHT22;11925;48.122;11.560;2023-04-25T03:26:45;12.10;91.70
23497;DHT22;11925;48.122;11.560;2023-04-25T03:29:13;12.00;91.70
23497;DHT22;11925;48.122;11.560;2023-04-25T03:31:43;12.10;91.90
23497;DHT22;11925;48.122;11.560;2023-04-25T03:34:13;12.10;92.00
23497;DHT22;11925;48.122;11.560;2023-04-25T03:36:42;12.10;92.00
23497;DHT22;11925;48.122;11.560;2023-04-25T03:39:10;12.00;92.10
23497;DHT22;11925;48.122;11.560;2023-04-25T03:41:43;12.10;92.10
23497;DHT22;11925;48.122;11.560;2023-04-25T03:44:13;12.10;92.20
23497;DHT22;11925;48.122;11.560;2023-04-25T03:46:42;12.10;92.10
23497;DHT22;11925;48.122;11.560;2023-04-25T03:49:10;12.10;92.10
23497;DHT22;11925;48.122;11.560;2023-04-25T03:51:56;12.10;92.10
23497;DHT22;11925;48.122;11.560;2023-04-25T03:54:25;12.10;92.20
23497;DHT22;11925;48.122;11.560;2023-04-25T03:56:58;12.00;92.00
23497;DHT22;11925;48.122;11.560;2023-04-25T03:59:29;12.00;92.10
23497;DHT22;11925;48.122;11.560;2023-04-25T04:01:57;12.00;92.00
23497;DHT22;11925;48.122;11.560;2023-04-25T04:04:26;12.00;91.70
23497;DHT22;11925;48.122;11.560;2023-04-25T04:06:56;12.00;91.80
23497;DHT22;11925;48.122;11.560;2023-04-25T04:09:28;12.00;91.80
23497;DHT22;11925;48.122;11.560;2023-04-25T04:11:58;12.00;91.70
23497;DHT22;11925;48.122;11.560;2023-04-25T04:14:30;12.00;91.70
23497;DHT22;11925;48.122;11.560;2023-04-25T04:16:58;12.00;91.70
23497;DHT22;11925;48.122;11.560;2023-04-25T04:19:28;12.00;91.70
23497;DHT22;11925;48.122;11.560;2023-04-25T04:22:10;12.00;91.80
23497;DHT22;11925;48.122;11.560;2023-04-25T04:24:40;12.00;91.70
23497;DHT22;11925;48.122;11.560;2023-04-25T04:27:12;12.00;91.90
23497;DHT22;11925;48.122;11.560;2023-04-25T04:30:01;12.00;91.80
23497;DHT22;11925;48.122;11.560;2023-04-25T04:32:36;12.00;91.80
23497;DHT22;11925;48.122;11.560;2023-04-25T04:35:06;12.00;91.80
23497;DHT22;11925;48.122;11.560;2023-04-25T04:37:37;12.00;91.80
23497;DHT22;11925;48.122;11.560;2023-04-25T04:40:09;12.00;91.90
23497;DHT22;11925;48.122;11.560;2023-04-25T04:43:00;12.00;91.90
23497;DHT22;11925;48.122;11.560;2023-04-25T04:45:46;12.00;91.90
23497;DHT22;11925;48.122;11.560;2023-04-25T04:48:31;12.00;92.00
23497;DHT22;11925;48.122;11.560;2023-04-25T04:51:39;12.00;92.00
23497;DHT22;11925;48.122;11.560;2023-04-25T04:54:35;12.00;92.10
23497;DHT22;11925;48.122;11.560;2023-04-25T04:57:34;12.00;92.00
23497;DHT22;11925;48.122;11.560;2023-04-25T05:00:23;12.00;92.50
23497;DHT22;11925;48.122;11.560;2023-04-25T05:03:13;12.00;92.20
23497;DHT22;11925;48.122;11.560;2023-04-25T05:06:06;12.00;92.20
23497;DHT22;11925;48.122;11.560;2023-04-25T05:08:54;12.00;92.30
23497;DHT22;11925;48.122;11.560;2023-04-25T05:11:38;12.00;92.20
23497;DHT22;11925;48.122;11.560;2023-04-25T05:14:45;12.00;92.20
23497;DHT22;11925;48.122;11.560;2023-04-25T05:17:32;11.90;92.00
23497;DHT22;11925;48.122;11.560;2023-04-25T05:20:25;12.00;92.20
23497;DHT22;11925;48.122;11.560;2023-04-25T05:23:06;12.00;92.20
23497;DHT22;11925;48.122;11.560;2023-04-25T05:25:49;12.00;92.20
23497;DHT22;11925;48.122;11.560;2023-04-25T05:28:32;12.00;92.20
23497;DHT22;11925;48.122;11.560;2023-04-25T05:31:13;12.00;92.30
23497;DHT22;11925;48.122;11.560;2023-04-25T05:33:49;12.00;92.30
23497;DHT22;11925;48.122;11.560;2023-04-25T05:36:18;12.00;92.30
23497;DHT22;11925;48.122;11.560;2023-04-25T05:38:47;12.00;92.30
23497;DHT22;11925;48.122;11.560;2023-04-25T05:41:21;12.00;92.50
23497;DHT22;11925;48.122;11.560;2023-04-25T05:44:23;12.00;92.60
23497;DHT22;11925;48.122;11.560;2023-04-25T05:47:10;12.00;92.70
23497;DHT22;11925;48.122;11.560;2023-04-25T05:50:04;12.00;92.70
23497;DHT22;11925;48.122;11.560;2023-04-25T05:52:42;12.00;92.80
23497;DHT22;11925;48.122;11.560;2023-04-25T05:55:26;12.00;93.10
23497;DHT22;11925;48.122;11.560;2023-04-25T05:57:56;12.00;93.30
23497;DHT22;11925;48.122;11.560;2023-04-25T06:00:26;12.00;93.20
23497;DHT22;11925;48.122;11.560;2023-04-25T06:02:55;11.90;93.10
23497;DHT22;11925;48.122;11.560;2023-04-25T06:05:24;11.90;93.30
23497;DHT22;11925;48.122;11.560;2023-04-25T06:07:53;12.50;96.60
23497;DHT22;11925;48.122;11.560;2023-04-25T06:10:21;11.80;93.70
23497;DHT22;11925;48.122;11.560;2023-04-25T06:12:50;11.90;94.50
23497;DHT22;11925;48.122;11.560;2023-04-25T06:15:21;11.80;94.00
23497;DHT22;11925;48.122;11.560;2023-04-25T06:17:56;11.80;94.00
23497;DHT22;11925;48.122;11.560;2023-04-25T06:20:25;11.80;94.10
23497;DHT22;11925;48.122;11.560;2023-04-25T06:22:56;11.90;94.40
23497;DHT22;11925;48.122;11.560;2023-04-25T06:25:47;11.90;94.50
23497;DHT22;11925;48.122;11.560;2023-04-25T06:28:16;11.90;94.60
23497;DHT22;11925;48.122;11.560;2023-04-25T06:30:44;11.90;94.70
23497;DHT22;11925;48.122;11.560;2023-04-25T06:33:18;11.90;95.00
23497;DHT22;11925;48.122;11.560;2023-04-25T06:35:48;11.90;95.00
23497;DHT22;11925;48.122;11.560;2023-04-25T06:38:21;11.80;95.00
23497;DHT22;11925;48.122;11.560;2023-04-25T06:40:51;11.90;95.20
23497;DHT22;11925;48.122;11.560;2023-04-25T06:43:19;11.80;95.30
23497;DHT22;11925;48.122;11.560;2023-04-25T06:46:02;11.80;95.40
23497;DHT22;11925;48.122;11.560;2023-04-25T06:48:36;11.80;95.40
23497;DHT22;11925;48.122;11.560;2023-04-25T06:51:05;11.80;95.50
23497;DHT22;11925;48.122;11.560;2023-04-25T06:53:34;11.90;95.50
23497;DHT22;11925;48.122;11.560;2023-04-25T06:56:06;11.80;95.70
23497;DHT22;11925;48.122;11.560;2023-04-25T06:58:46;11.90;95.60
23497;DHT22;11925;48.122;11.560;2023-04-25T07:01:23;11.80;95.90
23497;DHT22;11925;48.122;11.560;2023-04-25T07:03:53;11.80;95.90
23497;DHT22;11925;48.122;11.560;2023-04-25T07:06:23;11.90;96.00
23497;DHT22;11925;48.122;11.560;2023-04-25T07:08:54;11.90;96.10
23497;DHT22;11925;48.122;11.560;2023-04-25T07:11:23;11.90;96.20
23497;DHT22;11925;48.122;11.560;2023-04-25T07:13:52;11.90;96.30
23497;DHT22;11925;48.122;11.560;2023-04-25T07:16:20;11.90;96.40
23497;DHT22;11925;48.122;11.560;2023-04-25T07:18:49;11.90;96.40
23497;DHT22;11925;48.122;11.560;2023-04-25T07:21:20;11.90;96.60
23497;DHT22;11925;48.122;11.560;2023-04-25T07:23:50;11.90;96.80
23497;DHT22;11925;48.122;11.560;2023-04-25T07:26:25;11.90;96.60
23497;DHT22;11925;48.122;11.560;2023-04-25T07:29:26;11.90;96.60
23497;DHT22;11925;48.122;11.560;2023-04-25T07:31:54;11.90;96.60
23497;DHT22;11925;48.122;11.560;2023-04-25T07:34:23;11.90;96.50
23497;DHT22;11925;48.122;11.560;2023-04-25T07:36:53;11.90;96.50
23497;DHT22;11925;48.122;11.560;2023-04-25T07:39:23;11.90;96.60
23497;DHT22;11925;48.122;11.560;2023-04-25T07:41:51;11.90;96.70
23497;DHT22;11925;48.122;11.560;2023-04-25T07:44:25;11.90;96.70
23497;DHT22;11925;48.122;11.560;2023-04-25T07:46:53;12.00;97.10
23497;DHT22;11925;48.122;11.560;2023-04-25T07:49:23;11.90;96.80
23497;DHT22;11925;48.122;11.560;2023-04-25T07:51:53;11.90;96.80
23497;DHT22;11925;48.122;11.560;2023-04-25T07:54:22;12.00;97.00
23497;DHT22;11925;48.122;11.560;2023-04-25T07:56:57;11.90;97.00
23497;DHT22;11925;48.122;11.560;2023-04-25T07:59:29;11.90;97.00
23497;DHT22;11925;48.122;11.560;2023-04-25T08:02:00;11.90;97.40
23497;DHT22;11925;48.122;11.560;2023-04-25T08:04:29;12.00;96.90
23497;DHT22;11925;48.122;11.560;2023-04-25T08:07:04;12.00;97.00
23497;DHT22;11925;48.122;11.560;2023-04-25T08:09:40;12.00;96.90
23497;DHT22;11925;48.122;11.560;2023-04-25T08:12:16;12.00;96.70
23497;DHT22;11925;48.122;11.560;2023-04-25T08:14:44;12.00;96.60
23497;DHT22;11925;48.122;11.560;2023-04-25T08:17:13;12.00;96.50
23497;DHT22;11925;48.122;11.560;2023-04-25T08:19:42;12.00;96.40
23497;DHT22;11925;48.122;11.560;2023-04-25T08:22:20;12.00;96.20
23497;DHT22;11925;48.122;11.560;2023-04-25T08:25:09;12.00;96.40
23497;DHT22;11925;48.122;11.560;2023-04-25T08:27:39;12.00;96.00
23497;DHT22;11925;48.122;11.560;2023-04-25T08:30:09;12.00;95.90
23497;DHT22;11925;48.122;11.560;2023-04-25T08:32:39;12.00;95.80
23497;DHT22;11925;48.122;11.560;2023-04-25T08:35:21;12.10;95.80
23497;DHT22;11925;48.122;11.560;2023-04-25T08:37:52;12.10;95.70
23497;DHT22;11925;48.122;11.560;2023-04-25T08:40:22;12.10;95.50
23497;DHT22;11925;48.122;11.560;2023-04-25T08:43:01;12.00;95.40
23497;DHT22;11925;48.122;11.560;2023-04-25T08:45:32;12.00;95.10
23497;DHT22;11925;48.122;11.560;2023-04-25T08:48:02;12.10;95.20
23497;DHT22;11925;48.122;11.560;2023-04-25T08:50:31;12.10;95.20
23497;DHT22;11925;48.122;11.560;2023-04-25T08:53:04;12.10;95.20
23497;DHT22;11925;48.122;11.560;2023-04-25T08:55:37;12.00;95.00
23497;DHT22;11925;48.122;11.560;2023-04-25T08:58:10;12.10;94.40
23497;DHT22;11925;48.122;11.560;2023-04-25T09:00:39;12.10;94.00
23497;DHT22;11925;48.122;11.560;2023-04-25T09:03:07;12.10;93.60
23497;DHT22;11925;48.122;11.560;2023-04-25T09:05:36;12.10;92.80
23497;DHT22;11925;48.122;11.560;2023-04-25T09:08:06;12.10;92.00
23497;DHT22;11925;48.122;11.560;2023-04-25T09:10:35;12.10;91.80
23497;DHT22;11925;48.122;11.560;2023-04-25T09:13:07;12.20;91.50
23497;DHT22;11925;48.122;11.560;2023-04-25T09:15:57;12.20;90.80
23497;DHT22;11925;48.122;11.560;2023-04-25T09:18:47;12.20;91.10
23497;DHT22;11925;48.122;11.560;2023-04-25T09:21:17;12.20;90.80
23497;DHT22;11925;48.122;11.560;2023-04-25T09:23:52;12.20;91.40
23497;DHT22;11925;48.122;11.560;2023-04-25T09:26:21;12.30;91.60
23497;DHT22;11925;48.122;11.560;2023-04-25T09:29:05;12.30;91.70
23497;DHT22;11925;48.122;11.560;2023-04-25T09:31:37;12.40;91.30
23497;DHT22;11925;48.122;11.560;2023-04-25T09:34:08;12.40;90.90
23497;DHT22;11925;48.122;11.560;2023-04-25T09:36:43;12.30;90.50
23497;DHT22;11925;48.122;11.560;2023-04-25T09:39:19;12.30;90.20
23497;DHT22;11925;48.122;11.560;2023-04-25T09:41:59;12.20;89.50
23497;DHT22;11925;48.122;11.560;2023-04-25T09:44:28;12.20;88.20
23497;DHT22;11925;48.122;11.560;2023-04-25T09:46:57;12.20;87.70
23497;DHT22;11925;48.122;11.560;2023-04-25T09:49:28;12.20;87.50
23497;DHT22;11925;48.122;11.560;2023-04-25T09:52:04;12.20;88.20
23497;DHT22;11925;48.122;11.560;2023-04-25T09:54:58;12.20;88.20
23497;DHT22;11925;48.122;11.560;2023-04-25T09:57:33;12.20;87.50
23497;DHT22;11925;48.122;11.560;2023-04-25T10:00:02;12.20;87.50
23497;DHT22;11925;48.122;11.560;2023-04-25T10:02:46;12.30;87.60
23497;DHT22;11925;48.122;11.560;2023-04-25T10:05:51;12.30;87.50
23497;DHT22;11925;48.122;11.560;2023-04-25T10:08:20;12.20;87.20
23497;DHT22;11925;48.122;11.560;2023-04-25T10:10:51;12.20;87.00
23497;DHT22;11925;48.122;11.560;2023-04-25T10:13:20;12.20;87.50
23497;DHT22;11925;48.122;11.560;2023-04-25T10:15:48;12.20;88.30
23497;DHT22;11925;48.122;11.560;2023-04-25T10:18:17;12.20;88.20
23497;DHT22;11925;48.122;11.560;2023-04-25T10:20:46;12.30;89.50
23497;DHT22;11925;48.122;11.560;2023-04-25T10:23:15;12.30;90.00
23497;DHT22;11925;48.122;11.560;2023-04-25T10:25:44;12.40;90.10
23497;DHT22;11925;48.122;11.560;2023-04-25T10:28:14;12.40;90.00
23497;DHT22;11925;48.122;11.560;2023-04-25T10:30:57;12.40;89.90
23497;DHT22;11925;48.122;11.560;2023-04-25T10:33:32;12.40;89.90
23497;DHT22;11925;48.122;11.560;2023-04-25T10:36:09;12.40;89.50
23497;DHT22;11925;48.122;11.560;2023-04-25T10:38:38;12.40;88.00
23497;DHT22;11925;48.122;11.560;2023-04-25T10:41:09;12.30;89.70
23497;DHT22;11925;48.122;11.560;2023-04-25T10:43:40;12.30;90.90
23497;DHT22;11925;48.122;11.560;2023-04-25T10:46:19;12.30;92.10
23497;DHT22;11925;48.122;11.560;2023-04-25T10:48:50;12.20;92.40
23497;DHT22;11925;48.122;11.560;2023-04-25T10:51:21;12.30;92.20
23497;DHT22;11925;48.122;11.560;2023-04-25T10:53:58;12.20;92.60
23497;DHT22;11925;48.122;11.560;2023-04-25T10:56:28;12.20;92.50
23497;DHT22;11925;48.122;11.560;2023-04-25T10:59:06;12.20;92.60
23497;DHT22;11925;48.122;11.560;2023-04-25T11:01:39;12.20;92.80
23497;DHT22;11925;48.122;11.560;2023-04-25T11:04:19;12.20;93.10
23497;DHT22;11925;48.122;11.560;2023-04-25T11:07:10;12.20;92.90
23497;DHT22;11925;48.122;11.560;2023-04-25T11:09:41;12.20;93.50
23497;DHT22;11925;48.122;11.560;2023-04-25T11:12:10;12.20;93.50
23497;DHT22;11925;48.122;11.560;2023-04-25T11:14:41;12.20;93.50
23497;DHT22;11925;48.122;11.560;2023-04-25T11:17:11;12.20;93.60
23497;DHT22;11925;48.122;11.560;2023-04-25T11:19:40;12.10;93.30
23497;DHT22;11925;48.122;11.560;2023-04-25T11:22:10;12.10;92.90
23497;DHT22;11925;48.122;11.560;2023-04-25T11:24:38;12.20;92.70
23497;DHT22;11925;48.122;11.560;2023-04-25T11:27:07;12.10;92.10
23497;DHT22;11925;48.122;11.560;2023-04-25T11:29:36;12.10;91.50
23497;DHT22;11925;48.122;11.560;2023-04-25T11:32:06;12.10;91.50
23497;DHT22;11925;48.122;11.560;2023-04-25T11:34:34;12.20;91.10
23497;DHT22;11925;48.122;11.560;2023-04-25T11:37:04;12.10;90.80
23497;DHT22;11925;48.122;11.560;2023-04-25T11:39:35;12.20;90.40
23497;DHT22;11925;48.122;11.560;2023-04-25T11:42:04;12.10;90.90
23497;DHT22;11925;48.122;11.560;2023-04-25T11:44:52;12.10;91.00
23497;DHT22;11925;48.122;11.560;2023-04-25T11:47:28;12.10;91.70
23497;DHT22;11925;48.122;11.560;2023-04-25T11:49:58;12.20;92.00
23497;DHT22;11925;48.122;11.560;2023-04-25T11:52:36;12.20;92.40
23497;DHT22;11925;48.122;11.560;2023-04-25T11:55:06;12.20;92.60
23497;DHT22;11925;48.122;11.560;2023-04-25T11:57:38;12.20;92.90
23497;DHT22;11925;48.122;11.560;2023-04-25T12:00:09;12.20;93.30
23497;DHT22;11925;48.122;11.560;2023-04-25T12:02:45;12.20;93.50
23497;DHT22;11925;48.122;11.560;2023-04-25T12:05:15;12.20;94.20
23497;DHT22;11925;48.122;11.560;2023-04-25T12:07:47;12.20;93.80
23497;DHT22;11925;48.122;11.560;2023-04-25T12:10:17;12.10;93.70
23497;DHT22;11925;48.122;11.560;2023-04-25T12:12:48;12.10;93.70
23497;DHT22;11925;48.122;11.560;2023-04-25T12:15:18;12.10;93.50
23497;DHT22;11925;48.122;11.560;2023-04-25T12:17:49;12.00;93.50
23497;DHT22;11925;48.122;11.560;2023-04-25T12:20:19;12.00;93.40
23497;DHT22;11925;48.122;11.560;2023-04-25T12:22:51;12.00;93.60
23497;DHT22;11925;48.122;11.560;2023-04-25T12:25:36;12.10;93.90
23497;DHT22;11925;48.122;11.560;2023-04-25T12:28:16;12.10;94.10
23497;DHT22;11925;48.122;11.560;2023-04-25T12:30:57;12.10;94.30
23497;DHT22;11925;48.122;11.560;2023-04-25T12:33:28;12.10;94.40
23497;DHT22;11925;48.122;11.560;2023-04-25T12:35:58;12.10;94.60
23497;DHT22;11925;48.122;11.560;2023-04-25T12:38:28;12.20;94.80
23497;DHT22;11925;48.122;11.560;2023-04-25T12:40:57;12.10;94.90
23497;DHT22;11925;48.122;11.560;2023-04-25T12:43:26;12.10;95.00
23497;DHT22;11925;48.122;11.560;2023-04-25T12:45:55;12.10;95.30
23497;DHT22;11925;48.122;11.560;2023-04-25T12:48:24;12.10;95.20
23497;DHT22;11925;48.122;11.560;2023-04-25T12:50:54;12.10;95.20
23497;DHT22;11925;48.122;11.560;2023-04-25T12:53:23;12.00;95.00
23497;DHT22;11925;48.122;11.560;2023-04-25T12:55:51;12.00;95.00
23497;DHT22;11925;48.122;11.560;2023-04-25T12:58:21;12.10;95.10
23497;DHT22;11925;48.122;11.560;2023-04-25T13:00:50;12.00;95.10
23497;DHT22;11925;48.122;11.560;2023-04-25T13:03:18;12.00;95.40
23497;DHT22;11925;48.122;11.560;2023-04-25T13:05:47;12.00;95.50
23497;DHT22;11925;48.122;11.560;2023-04-25T13:08:18;12.00;95.60
23497;DHT22;11925;48.122;11.560;2023-04-25T13:10:47;12.10;95.70
23497;DHT22;11925;48.122;11.560;2023-04-25T13:13:16;12.10;95.60
23497;DHT22;11925;48.122;11.560;2023-04-25T13:15:44;12.00;95.70
23497;DHT22;11925;48.122;11.560;2023-04-25T13:18:13;12.00;95.70
23497;DHT22;11925;48.122;11.560;2023-04-25T13:20:41;12.00;95.70
23497;DHT22;11925;48.122;11.560;2023-04-25T13:23:10;12.00;95.70
23497;DHT22;11925;48.122;11.560;2023-04-25T13:25:39;12.00;95.90
23497;DHT22;11925;48.122;11.560;2023-04-25T13:28:08;12.00;95.80
23497;DHT22;11925;48.122;11.560;2023-04-25T13:30:36;12.00;95.90
23497;DHT22;11925;48.122;11.560;2023-04-25T13:33:04;11.90;95.90
23497;DHT22;11925;48.122;11.560;2023-04-25T13:35:35;11.90;95.70
23497;DHT22;11925;48.122;11.560;2023-04-25T13:38:03;11.90;96.00
23497;DHT22;11925;48.122;11.560;2023-04-25T13:40:32;11.90;95.90
23497;DHT22;11925;48.122;11.560;2023-04-25T13:43:02;11.80;96.00
23497;DHT22;11925;48.122;11.560;2023-04-25T13:45:30;11.80;96.20
23497;DHT22;11925;48.122;11.560;2023-04-25T13:47:59;11.80;96.50
23497;DHT22;11925;48.122;11.560;2023-04-25T13:50:28;11.80;96.70
23497;DHT22;11925;48.122;11.560;2023-04-25T13:52:57;11.80;96.80
23497;DHT22;11925;48.122;11.560;2023-04-25T13:55:25;11.80;96.90
23497;DHT22;11925;48.122;11.560;2023-04-25T14:00:24;11.80;97.10
23497;DHT22;11925;48.122;11.560;2023-04-25T14:02:56;11.80;97.40
23497;DHT22;11925;48.122;11.560;2023-04-25T14:05:24;11.80;97.30
23497;DHT22;11925;48.122;11.560;2023-04-25T14:07:53;11.80;97.00
23497;DHT22;11925;48.122;11.560;2023-04-25T14:10:22;11.80;96.90
23497;DHT22;11925;48.122;11.560;2023-04-25T14:12:50;11.80;97.00
23497;DHT22;11925;48.122;11.560;2023-04-25T14:15:18;11.80;97.10
23497;DHT22;11925;48.122;11.560;2023-04-25T14:17:48;11.80;97.20
23497;DHT22;11925;48.122;11.560;2023-04-25T14:20:17;11.80;97.30
23497;DHT22;11925;48.122;11.560;2023-04-25T14:22:47;11.80;97.40
23497;DHT22;11925;48.122;11.560;2023-04-25T14:25:15;11.70;97.40
23497;DHT22;11925;48.122;11.560;2023-04-25T14:27:44;11.70;97.40
23497;DHT22;11925;48.122;11.560;2023-04-25T14:30:17;11.70;97.80
23497;DHT22;11925;48.122;11.560;2023-04-25T14:32:45;11.70;97.40
23497;DHT22;11925;48.122;11.560;2023-04-25T14:35:15;11.70;97.40
23497;DHT22;11925;48.122;11.560;2023-04-25T14:37:43;11.70;97.50
23497;DHT22;11925;48.122;11.560;2023-04-25T14:40:12;11.80;97.70
23497;DHT22;11925;48.122;11.560;2023-04-25T14:42:42;11.80;97.90
23497;DHT22;11925;48.122;11.560;2023-04-25T14:45:11;11.80;97.90
23497;DHT22;11925;48.122;11.560;2023-04-25T14:47:39;11.70;98.00
23497;DHT22;11925;48.122;11.560;2023-04-25T14:50:09;11.80;98.00
23497;DHT22;11925;48.122;11.560;2023-04-25T14:52:39;11.80;98.00
23497;DHT22;11925;48.122;11.560;2023-04-25T14:55:08;11.80;98.20
23497;DHT22;11925;48.122;11.560;2023-04-25T14:57:36;11.80;98.00
23497;DHT22;11925;48.122;11.560;2023-04-25T15:00:07;11.80;97.70
23497;DHT22;11925;48.122;11.560;2023-04-25T15:02:36;11.80;97.50
23497;DHT22;11925;48.122;11.560;2023-04-25T15:05:05;11.80;97.50
23497;DHT22;11925;48.122;11.560;2023-04-25T15:07:35;11.80;97.50
23497;DHT22;11925;48.122;11.560;2023-04-25T15:10:06;11.80;97.70
23497;DHT22;11925;48.122;11.560;2023-04-25T15:12:40;11.80;97.60
23497;DHT22;11925;48.122;11.560;2023-04-25T15:15:09;11.80;97.80
23497;DHT22;11925;48.122;11.560;2023-04-25T15:17:44;11.80;97.80
23497;DHT22;11925;48.122;11.560;2023-04-25T15:20:13;11.80;97.80
23497;DHT22;11925;48.122;11.560;2023-04-25T15:22:43;11.80;97.80
23497;DHT22;11925;48.122;11.560;2023-04-25T15:25:13;11.80;97.80
23497;DHT22;11925;48.122;11.560;2023-04-25T15:27:41;11.80;97.60
23497;DHT22;11925;48.122;11.560;2023-04-25T15:30:12;11.80;97.50
23497;DHT22;11925;48.122;11.560;2023-04-25T15:32:42;11.80;97.60
23497;DHT22;11925;48.122;11.560;2023-04-25T15:35:11;11.80;97.40
23497;DHT22;11925;48.122;11.560;2023-04-25T15:37:39;11.60;97.30
23497;DHT22;11925;48.122;11.560;2023-04-25T15:40:10;11.70;97.30
23497;DHT22;11925;48.122;11.560;2023-04-25T15:42:42;11.70;97.20
23497;DHT22;11925;48.122;11.560;2023-04-25T15:45:14;11.80;97.20
23497;DHT22;11925;48.122;11.560;2023-04-25T15:47:44;11.80;97.30
23497;DHT22;11925;48.122;11.560;2023-04-25T15:50:13;11.80;97.30